sensor_id;sensor_type;location;lat;lon;timestamp;pressure;altitude;pressure_sealevel;temperature;humidity
23341;BME280;12239;53.404;23.492;2023-03-08T00:00:41;76478.27;;;-147.78;100.00
23341;BME280;12239;53.404;23.492;2023-03-08T00:03:29;76513.52;;;-147.78;100.00
23341;BME280;12239;53.404;23.492;2023-03-08T00:05:58;76542.64;;;-147.78;100.00
23341;BME280;12239;53.404;23.492;2023-03-08T00:08:29;76562.31;;;-147.78;100.00
23341;BME280;12239;53.404;23.492;2023-03-08T00:11:02;76579.53;;;-147.78;100.00
23341;BME280;12239;53.404;23.492;2023-03-08T00:13:33;76588.55;;;-147.78;100.00
23341;BME280;12239;53.404;23.492;2023-03-08T00:16:00;76603.73;;;-147.78;100.00
23341;BME280;12239;53.404;23.492;2023-03-08T00:18:48;76611.92;;;-147.78;100.00
23341;BME280;12239;53.404;23.492;2023-03-08T00:21:35;76619.30;;;-147.78;100.00
23341;BME280;12239;53.404;23.492;2023-03-08T00:24:03;76621.35;;;-147.78;100.00
23341;BME280;12239;53.404;23.492;2023-03-08T00:26:31;76627.50;;;-147.78;100.00
23341;BME280;12239;53.404;23.492;2023-03-08T00:29:18;76630.38;;;-147.78;100.00
23341;BME280;12239;53.404;23.492;2023-03-08T00:32:06;76634.06;;;-147.78;100.00
23341;BME280;12239;53.404;23.492;2023-03-08T00:34:34;76629.14;;;-147.78;100.00
23341;BME280;12239;53.404;23.492;2023-03-08T00:37:01;76627.91;;;-147.78;100.00
23341;BME280;12239;53.404;23.492;2023-03-08T00:39:50;76627.09;;;-147.78;100.00
23341;BME280;12239;53.404;23.492;2023-03-08T00:42:21;76625.46;;;-147.78;100.00
23341;BME280;12239;53.404;23.492;2023-03-08T00:44:52;76620.94;;;-147.78;100.00
23341;BME280;12239;53.404;23.492;2023-03-08T00:47:22;76616.43;;;-147.78;100.00
23341;BME280;12239;53.404;23.492;2023-03-08T00:49:49;76616.84;;;-147.78;100.00
23341;BME280;12239;53.404;23.492;2023-03-08T00:52:16;76623.00;;;-147.78;100.00
23341;BME280;12239;53.404;23.492;2023-03-08T00:54:44;76627.52;;;-147.78;100.00
23341;BME280;12239;53.404;23.492;2023-03-08T00:57:14;76636.11;;;-147.78;100.00
23341;BME280;12239;53.404;23.492;2023-03-08T01:00:02;76632.42;;;-147.78;100.00
23341;BME280;12239;53.404;23.492;2023-03-08T01:02:33;76629.14;;;-147.78;100.00
23341;BME280;12239;53.404;23.492;2023-03-08T01:05:21;76627.92;;;-147.78;100.00
23341;BME280;12239;53.404;23.492;2023-03-08T01:07:48;76622.17;;;-147.78;100.00
23341;BME280;12239;53.404;23.492;2023-03-08T01:10:16;76622.59;;;-147.78;100.00
23341;BME280;12239;53.404;23.492;2023-03-08T01:12:43;76629.96;;;-147.78;100.00
23341;BME280;12239;53.404;23.492;2023-03-08T01:15:14;76626.69;;;-147.78;100.00
23341;BME280;12239;53.404;23.492;2023-03-08T01:17:41;76625.05;;;-147.78;100.00
23341;BME280;12239;53.404;23.492;2023-03-08T01:20:09;76622.17;;;-147.78;100.00
23341;BME280;12239;53.404;23.492;2023-03-08T01:22:37;76626.68;;;-147.78;100.00
23341;BME280;12239;53.404;23.492;2023-03-08T01:25:05;76625.05;;;-147.78;100.00
23341;BME280;12239;53.404;23.492;2023-03-08T01:27:41;76624.64;;;-147.78;100.00
23341;BME280;12239;53.404;23.492;2023-03-08T01:30:10;76629.96;;;-147.78;100.00
23341;BME280;12239;53.404;23.492;2023-03-08T01:32:40;76634.48;;;-147.78;100.00
23341;BME280;12239;53.404;23.492;2023-03-08T01:35:10;76629.96;;;-147.78;100.00
23341;BME280;12239;53.404;23.492;2023-03-08T01:37:37;76631.20;;;-147.78;100.00
23341;BME280;12239;53.404;23.492;2023-03-08T01:40:08;76632.42;;;-147.78;100.00
23341;BME280;12239;53.404;23.492;2023-03-08T01:46:02;76627.91;;;-147.78;100.00
23341;BME280;12239;53.404;23.492;2023-03-08T01:48:31;76627.09;;;-147.78;100.00
23341;BME280;12239;53.404;23.492;2023-03-08T01:51:02;76627.50;;;-147.78;100.00
23341;BME280;12239;53.404;23.492;2023-03-08T01:53:33;76626.27;;;-147.78;100.00
23341;BME280;12239;53.404;23.492;2023-03-08T01:56:04;76624.23;;;-147.78;100.00
23341;BME280;12239;53.404;23.492;2023-03-08T01:58:31;76625.86;;;-147.78;100.00
23341;BME280;12239;53.404;23.492;2023-03-08T02:00:59;76628.33;;;-147.78;100.00
23341;BME280;12239;53.404;23.492;2023-03-08T02:03:27;76629.14;;;-147.78;100.00
23341;BME280;12239;53.404;23.492;2023-03-08T02:05:54;76635.30;;;-147.78;100.00
23341;BME280;12239;53.404;23.492;2023-03-08T02:08:21;76637.35;;;-147.78;100.00
23341;BME280;12239;53.404;23.492;2023-03-08T02:10:48;76643.48;;;-147.78;100.00
23341;BME280;12239;53.404;23.492;2023-03-08T02:13:16;76643.50;;;-147.78;100.00
23341;BME280;12239;53.404;23.492;2023-03-08T02:15:45;76648.82;;;-147.78;100.00
23341;BME280;12239;53.404;23.492;2023-03-08T02:18:13;76652.52;;;-147.78;100.00
23341;BME280;12239;53.404;23.492;2023-03-08T02:20:40;76654.15;;;-147.78;100.00
23341;BME280;12239;53.404;23.492;2023-03-08T02:23:09;76657.85;;;-147.78;100.00
23341;BME280;12239;53.404;23.492;2023-03-08T02:25:36;76658.66;;;-147.78;100.00
23341;BME280;12239;53.404;23.492;2023-03-08T02:28:04;76658.26;;;-147.78;100.00
23341;BME280;12239;53.404;23.492;2023-03-08T02:30:33;76659.48;;;-147.78;100.00
23341;BME280;12239;53.404;23.492;2023-03-08T02:33:01;76664.82;;;-147.78;100.00
23341;BME280;12239;53.404;23.492;2023-03-08T02:35:29;76671.38;;;-147.78;100.00
23341;BME280;12239;53.404;23.492;2023-03-08T02:37:56;76676.30;;;-147.78;100.00
23341;BME280;12239;53.404;23.492;2023-03-08T02:40:23;76675.89;;;-147.78;100.00
23341;BME280;12239;53.404;23.492;2023-03-08T02:42:51;76679.16;;;-147.78;100.00
23341;BME280;12239;53.404;23.492;2023-03-08T02:45:18;76679.16;;;-147.78;100.00
23341;BME280;12239;53.404;23.492;2023-03-08T02:47:48;76684.08;;;-147.78;100.00
23341;BME280;12239;53.404;23.492;2023-03-08T02:50:16;76686.55;;;-147.78;100.00
23341;BME280;12239;53.404;23.492;2023-03-08T02:53:03;76687.77;;;-147.78;100.00
23341;BME280;12239;53.404;23.492;2023-03-08T02:55:31;76682.45;;;-147.78;100.00
23341;BME280;12239;53.404;23.492;2023-03-08T02:58:02;76682.04;;;-147.78;100.00
23341;BME280;12239;53.404;23.492;2023-03-08T03:00:29;76684.50;;;-147.78;100.00
23341;BME280;12239;53.404;23.492;2023-03-08T03:02:59;76685.73;;;-147.78;100.00
23341;BME280;12239;53.404;23.492;2023-03-08T03:05:29;76690.23;;;-147.78;100.00
23341;BME280;12239;53.404;23.492;2023-03-08T03:07:57;76698.44;;;-147.78;100.00
23341;BME280;12239;53.404;23.492;2023-03-08T03:10:27;76699.67;;;-147.78;100.00
23341;BME280;12239;53.404;23.492;2023-03-08T03:13:14;76698.44;;;-147.78;100.00
23341;BME280;12239;53.404;23.492;2023-03-08T03:15:41;76708.69;;;-147.78;100.00
23341;BME280;12239;53.404;23.492;2023-03-08T03:18:09;76711.98;;;-147.78;100.00
23341;BME280;12239;53.404;23.492;2023-03-08T03:21:01;76718.12;;;-147.78;100.00
23341;BME280;12239;53.404;23.492;2023-03-08T03:23:49;76718.53;;;-147.78;100.00
23341;BME280;12239;53.404;23.492;2023-03-08T03:26:19;76719.35;;;-147.78;100.00
23341;BME280;12239;53.404;23.492;2023-03-08T03:28:47;76717.30;;;-147.78;100.00
23341;BME280;12239;53.404;23.492;2023-03-08T03:31:35;76716.08;;;-147.78;100.00
23341;BME280;12239;53.404;23.492;2023-03-08T03:34:05;76717.70;;;-147.78;100.00
23341;BME280;12239;53.404;23.492;2023-03-08T03:36:33;76720.98;;;-147.78;100.00
23341;BME280;12239;53.404;23.492;2023-03-08T03:39:03;76721.81;;;-147.78;100.00
23341;BME280;12239;53.404;23.492;2023-03-08T03:41:31;76729.61;;;-147.78;100.00
23341;BME280;12239;53.404;23.492;2023-03-08T03:43:58;76730.02;;;-147.78;100.00
23341;BME280;12239;53.404;23.492;2023-03-08T03:46:25;76730.83;;;-147.78;100.00
23341;BME280;12239;53.404;23.492;2023-03-08T03:48:52;76732.48;;;-147.78;100.00
23341;BME280;12239;53.404;23.492;2023-03-08T03:51:20;76735.34;;;-147.78;100.00
23341;BME280;12239;53.404;23.492;2023-03-08T03:53:48;76733.70;;;-147.78;100.00
23341;BME280;12239;53.404;23.492;2023-03-08T03:56:18;76731.23;;;-147.78;100.00
23341;BME280;12239;53.404;23.492;2023-03-08T03:58:46;76732.06;;;-147.78;100.00
23341;BME280;12239;53.404;23.492;2023-03-08T04:01:14;76735.75;;;-147.78;100.00
23341;BME280;12239;53.404;23.492;2023-03-08T04:03:42;76738.62;;;-147.78;100.00
23341;BME280;12239;53.404;23.492;2023-03-08T04:06:13;76738.20;;;-147.78;100.00
23341;BME280;12239;53.404;23.492;2023-03-08T04:08:41;76736.16;;;-147.78;100.00
23341;BME280;12239;53.404;23.492;2023-03-08T04:14:20;76734.11;;;-147.78;100.00
23341;BME280;12239;53.404;23.492;2023-03-08T04:16:50;76734.52;;;-147.78;100.00
23341;BME280;12239;53.404;23.492;2023-03-08T04:19:19;76733.29;;;-147.78;100.00
23341;BME280;12239;53.404;23.492;2023-03-08T04:21:48;76735.34;;;-147.78;100.00
23341;BME280;12239;53.404;23.492;2023-03-08T04:24:18;76734.11;;;-147.78;100.00
23341;BME280;12239;53.404;23.492;2023-03-08T04:26:47;76731.23;;;-147.78;100.00
23341;BME280;12239;53.404;23.492;2023-03-08T04:29:16;76731.23;;;-147.78;100.00
23341;BME280;12239;53.404;23.492;2023-03-08T04:31:46;76732.88;;;-147.78;100.00
23341;BME280;12239;53.404;23.492;2023-03-08T04:34:15;76738.20;;;-147.78;100.00
23341;BME280;12239;53.404;23.492;2023-03-08T04:36:44;76737.80;;;-147.78;100.00
23341;BME280;12239;53.404;23.492;2023-03-08T04:39:14;76739.85;;;-147.78;100.00
23341;BME280;12239;53.404;23.492;2023-03-08T04:41:43;76741.08;;;-147.78;100.00
23341;BME280;12239;53.404;23.492;2023-03-08T04:44:13;76739.85;;;-147.78;100.00
23341;BME280;12239;53.404;23.492;2023-03-08T04:46:42;76741.90;;;-147.78;100.00
23341;BME280;12239;53.404;23.492;2023-03-08T04:49:11;76739.85;;;-147.78;100.00
23341;BME280;12239;53.404;23.492;2023-03-08T04:51:40;76744.36;;;-147.78;100.00
23341;BME280;12239;53.404;23.492;2023-03-08T04:54:10;76744.36;;;-147.78;100.00
23341;BME280;12239;53.404;23.492;2023-03-08T04:56:39;76743.13;;;-147.78;100.00
23341;BME280;12239;53.404;23.492;2023-03-08T04:59:08;76739.44;;;-147.78;100.00
23341;BME280;12239;53.404;23.492;2023-03-08T05:01:38;76742.31;;;-147.78;100.00
23341;BME280;12239;53.404;23.492;2023-03-08T05:04:07;76743.13;;;-147.78;100.00
23341;BME280;12239;53.404;23.492;2023-03-08T05:06:37;76745.17;;;-147.78;100.00
23341;BME280;12239;53.404;23.492;2023-03-08T05:09:07;76750.51;;;-147.78;100.00
23341;BME280;12239;53.404;23.492;2023-03-08T05:11:36;76755.84;;;-147.78;100.00
23341;BME280;12239;53.404;23.492;2023-03-08T05:14:05;76757.48;;;-147.78;100.00
23341;BME280;12239;53.404;23.492;2023-03-08T05:16:35;76755.84;;;-147.78;100.00
23341;BME280;12239;53.404;23.492;2023-03-08T05:19:04;76760.77;;;-147.78;100.00
23341;BME280;12239;53.404;23.492;2023-03-08T05:21:34;76760.77;;;-147.78;100.00
23341;BME280;12239;53.404;23.492;2023-03-08T05:24:04;76759.95;;;-147.78;100.00
23341;BME280;12239;53.404;23.492;2023-03-08T05:26:33;76764.45;;;-147.78;100.00
23341;BME280;12239;53.404;23.492;2023-03-08T05:29:03;76760.36;;;-147.78;100.00
23341;BME280;12239;53.404;23.492;2023-03-08T05:31:33;76764.04;;;-147.78;100.00
23341;BME280;12239;53.404;23.492;2023-03-08T05:34:04;76766.91;;;-147.78;100.00
23341;BME280;12239;53.404;23.492;2023-03-08T05:36:34;76763.64;;;-147.78;100.00
23341;BME280;12239;53.404;23.492;2023-03-08T05:39:03;76762.40;;;-147.78;100.00
23341;BME280;12239;53.404;23.492;2023-03-08T05:41:33;76764.45;;;-147.78;100.00
23341;BME280;12239;53.404;23.492;2023-03-08T05:44:03;76768.96;;;-147.78;100.00
23341;BME280;12239;53.404;23.492;2023-03-08T05:46:33;76766.50;;;-147.78;100.00
23341;BME280;12239;53.404;23.492;2023-03-08T05:49:05;76767.73;;;-147.78;100.00
23341;BME280;12239;53.404;23.492;2023-03-08T05:51:36;76768.14;;;-147.78;100.00
23341;BME280;12239;53.404;23.492;2023-03-08T05:54:06;76771.42;;;-147.78;100.00
23341;BME280;12239;53.404;23.492;2023-03-08T05:56:35;76768.55;;;-147.78;100.00
23341;BME280;12239;53.404;23.492;2023-03-08T05:59:05;76766.09;;;-147.78;100.00
23341;BME280;12239;53.404;23.492;2023-03-08T06:01:34;76758.30;;;-147.78;100.00
23341;BME280;12239;53.404;23.492;2023-03-08T06:04:04;76753.79;;;-147.78;100.00
23341;BME280;12239;53.404;23.492;2023-03-08T06:06:33;76756.25;;;-147.78;100.00
23341;BME280;12239;53.404;23.492;2023-03-08T06:09:03;76759.11;;;-147.78;100.00
23341;BME280;12239;53.404;23.492;2023-03-08T06:11:32;76763.63;;;-147.78;100.00
23341;BME280;12239;53.404;23.492;2023-03-08T06:14:01;76764.86;;;-147.78;100.00
23341;BME280;12239;53.404;23.492;2023-03-08T06:16:31;76763.23;;;-147.78;100.00
23341;BME280;12239;53.404;23.492;2023-03-08T06:19:01;76766.09;;;-147.78;100.00
23341;BME280;12239;53.404;23.492;2023-03-08T06:21:30;76769.37;;;-147.78;100.00
23341;BME280;12239;53.404;23.492;2023-03-08T06:24:00;76768.55;;;-147.78;100.00
23341;BME280;12239;53.404;23.492;2023-03-08T06:26:29;76761.99;;;-147.78;100.00
23341;BME280;12239;53.404;23.492;2023-03-08T06:29:00;76758.30;;;-147.78;100.00
23341;BME280;12239;53.404;23.492;2023-03-08T06:31:30;76758.30;;;-147.78;100.00
23341;BME280;12239;53.404;23.492;2023-03-08T06:33:59;76756.66;;;-147.78;100.00
23341;BME280;12239;53.404;23.492;2023-03-08T06:36:28;76759.95;;;-147.78;100.00
23341;BME280;12239;53.404;23.492;2023-03-08T06:38:58;76763.64;;;-147.78;100.00
23341;BME280;12239;53.404;23.492;2023-03-08T06:41:48;76768.96;;;-147.78;100.00
23341;BME280;12239;53.404;23.492;2023-03-08T06:44:17;76766.51;;;-147.78;100.00
23341;BME280;12239;53.404;23.492;2023-03-08T06:46:46;76767.73;;;-147.78;100.00
23341;BME280;12239;53.404;23.492;2023-03-08T06:49:16;76768.97;;;-147.78;100.00
23341;BME280;12239;53.404;23.492;2023-03-08T06:51:45;76775.93;;;-147.78;100.00
23341;BME280;12239;53.404;23.492;2023-03-08T06:54:14;76766.91;;;-147.78;100.00
23341;BME280;12239;53.404;23.492;2023-03-08T06:56:45;76770.20;;;-147.78;100.00
23341;BME280;12239;53.404;23.492;2023-03-08T06:59:15;76765.67;;;-147.78;100.00
23341;BME280;12239;53.404;23.492;2023-03-08T07:01:44;76761.58;;;-147.78;100.00
23341;BME280;12239;53.404;23.492;2023-03-08T07:04:14;76760.77;;;-147.78;100.00
23341;BME280;12239;53.404;23.492;2023-03-08T07:06:53;76759.53;;;-147.78;100.00
23341;BME280;12239;53.404;23.492;2023-03-08T07:09:25;76755.42;;;-147.78;100.00
23341;BME280;12239;53.404;23.492;2023-03-08T07:11:54;76743.54;;;-147.78;100.00
23341;BME280;12239;53.404;23.492;2023-03-08T07:14:24;76736.98;;;-147.78;100.00
23341;BME280;12239;53.404;23.492;2023-03-08T07:16:53;76736.57;;;-147.78;100.00
23341;BME280;12239;53.404;23.492;2023-03-08T07:19:22;76737.80;;;-147.78;100.00
23341;BME280;12239;53.404;23.492;2023-03-08T07:21:52;76737.39;;;-147.78;100.00
23341;BME280;12239;53.404;23.492;2023-03-08T07:24:21;76744.77;;;-147.78;100.00
23341;BME280;12239;53.404;23.492;2023-03-08T07:26:50;76747.23;;;-147.78;100.00
23341;BME280;12239;53.404;23.492;2023-03-08T07:29:22;76749.28;;;-147.78;100.00
23341;BME280;12239;53.404;23.492;2023-03-08T07:34:56;76757.89;;;-147.78;100.00
23341;BME280;12239;53.404;23.492;2023-03-08T07:37:26;76759.13;;;-147.78;100.00
23341;BME280;12239;53.404;23.492;2023-03-08T07:39:55;76767.32;;;-147.78;100.00
23341;BME280;12239;53.404;23.492;2023-03-08T07:42:45;76771.42;;;-147.78;100.00
23341;BME280;12239;53.404;23.492;2023-03-08T07:45:35;76773.47;;;-147.78;100.00
23341;BME280;12239;53.404;23.492;2023-03-08T07:48:05;76782.08;;;-147.78;100.00
23341;BME280;12239;53.404;23.492;2023-03-08T07:50:35;76793.15;;;-147.78;100.00
23341;BME280;12239;53.404;23.492;2023-03-08T07:53:04;76791.91;;;-147.78;100.00
23341;BME280;12239;53.404;23.492;2023-03-08T07:55:35;76785.77;;;-147.78;100.00
23341;BME280;12239;53.404;23.492;2023-03-08T07:58:22;76789.46;;;-147.78;99.18
23341;BME280;12239;53.404;23.492;2023-03-08T08:00:51;76802.17;;;-147.78;98.96
23341;BME280;12239;53.404;23.492;2023-03-08T08:03:20;76801.35;;;-147.78;99.80
23341;BME280;12239;53.404;23.492;2023-03-08T08:05:50;76796.85;;;-147.78;100.00
23341;BME280;12239;53.404;23.492;2023-03-08T08:08:20;76794.38;;;-147.78;99.87
23341;BME280;12239;53.404;23.492;2023-03-08T08:10:52;76791.52;;;-147.78;100.00
23341;BME280;12239;53.404;23.492;2023-03-08T08:13:21;76789.46;;;-147.78;98.71
23341;BME280;12239;53.404;23.492;2023-03-08T08:16:00;76800.95;;;-147.78;95.74
23341;BME280;12239;53.404;23.492;2023-03-08T08:18:30;76806.69;;;-147.78;97.63
23341;BME280;12239;53.404;23.492;2023-03-08T08:21:02;76812.42;;;-147.78;98.86
23341;BME280;12239;53.404;23.492;2023-03-08T08:23:32;76810.38;;;-147.78;99.43
23341;BME280;12239;53.404;23.492;2023-03-08T08:26:04;76798.48;;;-147.78;99.07
23341;BME280;12239;53.404;23.492;2023-03-08T08:28:34;76787.00;;;-147.78;97.82
23341;BME280;12239;53.404;23.492;2023-03-08T08:31:04;76786.59;;;-147.78;95.30
23341;BME280;12239;53.404;23.492;2023-03-08T08:33:34;76786.18;;;-147.78;94.46
23341;BME280;12239;53.404;23.492;2023-03-08T08:36:07;76782.90;;;-147.78;95.46
23341;BME280;12239;53.404;23.492;2023-03-08T08:38:37;76787.83;;;-147.78;95.40
23341;BME280;12239;53.404;23.492;2023-03-08T08:41:17;76792.73;;;-147.78;94.68
23341;BME280;12239;53.404;23.492;2023-03-08T08:43:47;76791.11;;;-147.78;93.72
23341;BME280;12239;53.404;23.492;2023-03-08T08:46:19;76794.80;;;-147.78;95.57
23341;BME280;12239;53.404;23.492;2023-03-08T08:48:49;76793.98;;;-147.78;93.16
23341;BME280;12239;53.404;23.492;2023-03-08T08:51:19;76805.86;;;-147.78;92.76
23341;BME280;12239;53.404;23.492;2023-03-08T08:54:08;76808.73;;;-147.78;92.21
23341;BME280;12239;53.404;23.492;2023-03-08T08:56:38;76818.17;;;-147.78;92.02
23341;BME280;12239;53.404;23.492;2023-03-08T08:59:10;76821.03;;;-147.78;93.73
23341;BME280;12239;53.404;23.492;2023-03-08T09:01:39;76814.88;;;-147.78;93.24
23341;BME280;12239;53.404;23.492;2023-03-08T09:04:12;76816.94;;;-147.78;93.98
23341;BME280;12239;53.404;23.492;2023-03-08T09:06:43;76809.96;;;-147.78;93.85
23341;BME280;12239;53.404;23.492;2023-03-08T09:09:12;76805.45;;;-147.78;92.61
23341;BME280;12239;53.404;23.492;2023-03-08T09:11:46;76802.58;;;-147.78;94.96
23341;BME280;12239;53.404;23.492;2023-03-08T09:14:15;76790.69;;;-147.78;92.49
23341;BME280;12239;53.404;23.492;2023-03-08T09:16:45;76786.17;;;-147.78;92.11
23341;BME280;12239;53.404;23.492;2023-03-08T09:19:14;76799.71;;;-147.78;91.22
23341;BME280;12239;53.404;23.492;2023-03-08T09:21:44;76794.79;;;-147.78;90.65
23341;BME280;12239;53.404;23.492;2023-03-08T09:24:16;76788.23;;;-147.78;92.90
23341;BME280;12239;53.404;23.492;2023-03-08T09:27:06;76779.21;;;-147.78;92.46
23341;BME280;12239;53.404;23.492;2023-03-08T09:29:35;76773.88;;;-147.78;91.27
23341;BME280;12239;53.404;23.492;2023-03-08T09:32:05;76775.93;;;-147.78;91.02
23341;BME280;12239;53.404;23.492;2023-03-08T09:34:56;76784.13;;;-147.78;76.18
23341;BME280;12239;53.404;23.492;2023-03-08T09:37:26;76797.66;;;-147.78;73.82
23341;BME280;12239;53.404;23.492;2023-03-08T09:39:55;76812.42;;;-147.78;73.92
23341;BME280;12239;53.404;23.492;2023-03-08T09:42:25;76808.33;;;-147.78;67.23
23341;BME280;12239;53.404;23.492;2023-03-08T09:45:00;76808.33;;;-147.78;66.25
23341;BME280;12239;53.404;23.492;2023-03-08T09:47:37;76807.09;;;-147.78;67.24
23341;BME280;12239;53.404;23.492;2023-03-08T09:50:20;76795.20;;;-147.78;67.29
23341;BME280;12239;53.404;23.492;2023-03-08T09:52:53;76782.08;;;-147.78;67.15
23341;BME280;12239;53.404;23.492;2023-03-08T09:55:48;76783.71;;;-147.78;63.70
23341;BME280;12239;53.404;23.492;2023-03-08T09:58:40;76770.60;;;-147.78;63.89
23341;BME280;12239;53.404;23.492;2023-03-08T10:04:51;76746.41;;;-147.78;63.89
23341;BME280;12239;53.404;23.492;2023-03-08T10:07:48;76730.83;;;-147.78;51.84
23341;BME280;12239;53.404;23.492;2023-03-08T10:10:23;76721.40;;;-147.78;49.97
23341;BME280;12239;53.404;23.492;2023-03-08T10:13:22;76716.06;;;-147.78;50.59
23341;BME280;12239;53.404;23.492;2023-03-08T10:15:55;76714.02;;;-147.78;50.57
23341;BME280;12239;53.404;23.492;2023-03-08T10:18:28;76718.52;;;-147.78;49.91
23341;BME280;12239;53.404;23.492;2023-03-08T10:20:58;76708.69;;;-147.78;49.82
23341;BME280;12239;53.404;23.492;2023-03-08T10:23:47;76710.33;;;-147.78;50.86
23341;BME280;12239;53.404;23.492;2023-03-08T10:26:36;76700.90;;;-147.78;50.39
23341;BME280;12239;53.404;23.492;2023-03-08T10:29:07;76704.17;;;-147.78;49.79
23341;BME280;12239;53.404;23.492;2023-03-08T10:31:40;76702.54;;;-147.78;50.23
23341;BME280;12239;53.404;23.492;2023-03-08T10:34:13;76695.98;;;-147.78;50.39
23341;BME280;12239;53.404;23.492;2023-03-08T10:36:47;76702.13;;;-147.78;49.21
23341;BME280;12239;53.404;23.492;2023-03-08T10:39:17;76698.45;;;-147.78;49.93
23341;BME280;12239;53.404;23.492;2023-03-08T10:41:53;76700.48;;;-147.78;48.58
23341;BME280;12239;53.404;23.492;2023-03-08T10:44:31;76698.02;;;-147.78;50.14
23341;BME280;12239;53.404;23.492;2023-03-08T10:47:16;76684.90;;;-147.78;49.15
23341;BME280;12239;53.404;23.492;2023-03-08T10:49:48;76693.11;;;-147.78;46.73
23341;BME280;12239;53.404;23.492;2023-03-08T10:52:22;76701.71;;;-147.78;46.20
23341;BME280;12239;53.404;23.492;2023-03-08T10:55:04;76709.51;;;-147.78;45.67
23341;BME280;12239;53.404;23.492;2023-03-08T10:57:35;76716.89;;;-147.78;46.53
23341;BME280;12239;53.404;23.492;2023-03-08T11:00:22;76716.89;;;-147.78;45.63
23341;BME280;12239;53.404;23.492;2023-03-08T11:03:13;76710.33;;;-147.78;43.30
23341;BME280;12239;53.404;23.492;2023-03-08T11:06:04;76716.48;;;-147.78;44.28
23341;BME280;12239;53.404;23.492;2023-03-08T11:08:34;76715.66;;;-147.78;45.59
23341;BME280;12239;53.404;23.492;2023-03-08T11:11:06;76711.15;;;-147.78;44.45
23341;BME280;12239;53.404;23.492;2023-03-08T11:16:46;76700.08;;;-147.78;45.24
23341;BME280;12239;53.404;23.492;2023-03-08T11:19:23;76698.02;;;-147.78;44.23
23341;BME280;12239;53.404;23.492;2023-03-08T11:21:56;76697.21;;;-147.78;43.96
23341;BME280;12239;53.404;23.492;2023-03-08T11:24:39;76701.31;;;-147.78;43.96
23341;BME280;12239;53.404;23.492;2023-03-08T11:27:15;76684.91;;;-147.78;44.79
23341;BME280;12239;53.404;23.492;2023-03-08T11:29:52;76671.38;;;-147.78;44.30
23341;BME280;12239;53.404;23.492;2023-03-08T11:32:30;76652.92;;;-147.78;44.78
23341;BME280;12239;53.404;23.492;2023-03-08T11:35:04;76648.83;;;-147.78;44.98
23341;BME280;12239;53.404;23.492;2023-03-08T11:37:37;76635.29;;;-147.78;44.60
23341;BME280;12239;53.404;23.492;2023-03-08T11:40:18;76633.65;;;-147.78;42.77
23341;BME280;12239;53.404;23.492;2023-03-08T11:42:52;76630.79;;;-147.78;41.04
23341;BME280;12239;53.404;23.492;2023-03-08T11:45:24;76633.66;;;-147.78;41.15
23341;BME280;12239;53.404;23.492;2023-03-08T11:48:08;76624.23;;;-147.78;41.01
23341;BME280;12239;53.404;23.492;2023-03-08T11:50:41;76611.10;;;-147.78;41.29
23341;BME280;12239;53.404;23.492;2023-03-08T11:53:17;76611.52;;;-147.78;40.27
23341;BME280;12239;53.404;23.492;2023-03-08T11:55:56;76625.86;;;-147.78;40.75
23341;BME280;12239;53.404;23.492;2023-03-08T11:58:29;76640.63;;;-147.78;40.21
23341;BME280;12239;53.404;23.492;2023-03-08T12:01:03;76662.35;;;-147.78;40.69
23341;BME280;12239;53.404;23.492;2023-03-08T12:03:35;76675.06;;;-147.78;40.23
23341;BME280;12239;53.404;23.492;2023-03-08T12:06:09;76681.21;;;-147.78;41.17
23341;BME280;12239;53.404;23.492;2023-03-08T12:08:40;76682.44;;;-147.78;41.09
23341;BME280;12239;53.404;23.492;2023-03-08T12:11:17;76668.10;;;-147.78;41.25
23341;BME280;12239;53.404;23.492;2023-03-08T12:13:49;76659.08;;;-147.78;39.64
23341;BME280;12239;53.404;23.492;2023-03-08T12:16:31;76656.20;;;-147.78;39.60
23341;BME280;12239;53.404;23.492;2023-03-08T12:19:23;76652.52;;;-147.78;39.74
23341;BME280;12239;53.404;23.492;2023-03-08T12:21:54;76671.79;;;-147.78;39.59
23341;BME280;12239;53.404;23.492;2023-03-08T12:24:30;76679.98;;;-147.78;39.18
23341;BME280;12239;53.404;23.492;2023-03-08T12:27:06;76698.44;;;-147.78;38.54
23341;BME280;12239;53.404;23.492;2023-03-08T12:29:39;76707.05;;;-147.78;38.05
23341;BME280;12239;53.404;23.492;2023-03-08T12:32:09;76702.95;;;-147.78;38.66
23341;BME280;12239;53.404;23.492;2023-03-08T12:35:01;76695.98;;;-147.78;39.67
23341;BME280;12239;53.404;23.492;2023-03-08T12:37:35;76675.48;;;-147.78;39.23
23341;BME280;12239;53.404;23.492;2023-03-08T12:40:06;76673.02;;;-147.78;39.12
23341;BME280;12239;53.404;23.492;2023-03-08T12:46:03;76691.47;;;-147.78;37.57
23341;BME280;12239;53.404;23.492;2023-03-08T12:48:53;76698.02;;;-147.78;37.61
23341;BME280;12239;53.404;23.492;2023-03-08T12:51:28;76678.76;;;-147.78;37.47
23341;BME280;12239;53.404;23.492;2023-03-08T12:54:02;76657.44;;;-147.78;37.08
23341;BME280;12239;53.404;23.492;2023-03-08T12:56:49;76645.95;;;-147.78;37.15
23341;BME280;12239;53.404;23.492;2023-03-08T13:02:24;76631.61;;;-147.78;38.08
23341;BME280;12239;53.404;23.492;2023-03-08T13:05:13;76630.38;;;-147.78;38.40
23341;BME280;12239;53.404;23.492;2023-03-08T13:07:51;76630.79;;;-147.78;37.98
23341;BME280;12239;53.404;23.492;2023-03-08T13:10:54;76625.46;;;-147.78;38.42
23341;BME280;12239;53.404;23.492;2023-03-08T13:13:26;76618.08;;;-147.78;37.93